createdAt,value
2018-10-02T00:00:15.234Z,75.10
2018-10-02T00:02:44.869Z,75.60
2018-10-02T00:05:14.622Z,75.80
2018-10-02T00:07:44.317Z,76.30
2018-10-02T00:10:13.944Z,76.00
2018-10-02T00:12:48.755Z,75.70
2018-10-02T00:15:18.369Z,75.80
2018-10-02T00:17:48.285Z,76.00
2018-10-02T00:20:17.940Z,76.20
2018-10-02T00:22:47.793Z,76.30
2018-10-02T00:25:17.495Z,76.10
2018-10-02T00:27:47.349Z,76.30
2018-10-02T00:30:16.955Z,76.30
2018-10-02T00:32:46.593Z,76.40
2018-10-02T00:35:16.289Z,76.40
2018-10-02T00:37:46.027Z,76.20
2018-10-02T00:40:15.855Z,76.60
2018-10-02T00:42:45.465Z,76.30
2018-10-02T00:45:15.257Z,75.80
2018-10-02T00:47:44.975Z,75.20
2018-10-02T00:50:14.657Z,74.80
2018-10-02T00:52:44.136Z,74.60
2018-10-02T00:55:13.869Z,74.90
2018-10-02T00:57:43.583Z,75.20
2018-10-02T01:00:13.182Z,75.10
2018-10-02T01:02:42.818Z,74.40
2018-10-02T01:05:12.541Z,74.90
2018-10-02T01:07:42.208Z,74.90
2018-10-02T01:10:11.729Z,74.60
2018-10-02T01:12:41.412Z,73.90
2018-10-02T01:15:11.003Z,74.80
2018-10-02T01:17:40.770Z,75.30
2018-10-02T01:20:10.507Z,75.80
2018-10-02T01:22:40.225Z,75.20
2018-10-02T01:25:09.868Z,75.10
2018-10-02T01:27:42.530Z,75.20
2018-10-02T01:30:12.453Z,75.10
2018-10-02T01:32:42.183Z,75.10
2018-10-02T01:35:11.792Z,75.00
2018-10-02T01:37:41.420Z,75.50
2018-10-02T01:40:10.899Z,75.40
2018-10-02T01:42:40.628Z,75.20
2018-10-02T01:45:10.725Z,75.40
2018-10-02T01:47:40.307Z,75.40
2018-10-02T01:50:09.945Z,75.50
2018-10-02T01:52:42.210Z,75.60
2018-10-02T01:55:11.828Z,75.70
2018-10-02T01:57:41.523Z,75.90
2018-10-02T02:00:11.254Z,76.70
2018-10-02T02:02:40.940Z,76.10
2018-10-02T02:05:10.676Z,76.10
2018-10-02T02:07:40.347Z,75.90
2018-10-02T02:10:10.180Z,76.00
2018-10-02T02:12:39.843Z,76.20
2018-10-02T02:15:09.719Z,75.90
2018-10-02T02:17:39.323Z,75.50
2018-10-02T02:20:09.191Z,75.90
2018-10-02T02:22:38.974Z,76.00
2018-10-02T02:25:08.534Z,76.40
2018-10-02T02:27:38.099Z,76.30
2018-10-02T02:30:08.358Z,76.50
2018-10-02T02:32:38.013Z,76.20
2018-10-02T02:35:07.507Z,74.70
2018-10-02T02:37:37.994Z,75.40
2018-10-02T02:40:07.917Z,75.50
2018-10-02T02:42:37.714Z,76.00
2018-10-02T02:45:07.492Z,76.10
2018-10-02T02:47:42.151Z,76.30
2018-10-02T02:50:17.116Z,76.00
2018-10-02T02:52:50.753Z,75.70
2018-10-02T02:55:20.331Z,75.70
2018-10-02T02:57:49.881Z,75.80
2018-10-02T03:00:19.478Z,74.90
2018-10-02T03:02:49.175Z,75.80
2018-10-02T03:05:18.863Z,75.70
2018-10-02T03:07:48.477Z,75.80
2018-10-02T03:10:21.264Z,75.70
2018-10-02T03:12:51.039Z,75.30
2018-10-02T03:15:20.778Z,75.00
2018-10-02T03:17:51.452Z,74.90
2018-10-02T03:20:20.873Z,75.30
2018-10-02T03:22:50.697Z,75.30
2018-10-02T03:25:21.617Z,75.20
2018-10-02T03:27:51.414Z,75.50
2018-10-02T03:30:20.975Z,75.30
2018-10-02T03:32:50.742Z,75.40
2018-10-02T03:35:20.397Z,75.50
2018-10-02T03:37:50.128Z,74.70
2018-10-02T03:40:19.631Z,74.30
2018-10-02T03:42:49.378Z,74.60
2018-10-02T03:45:19.049Z,75.20
2018-10-02T03:47:48.767Z,74.90
2018-10-02T03:50:18.391Z,74.60
2018-10-02T03:52:47.801Z,75.30
2018-10-02T03:55:17.607Z,74.90
2018-10-02T03:57:48.077Z,75.10
2018-10-02T04:00:17.526Z,75.20
2018-10-02T04:02:47.203Z,75.70
2018-10-02T04:05:16.974Z,75.90
2018-10-02T04:07:46.553Z,76.80
2018-10-02T04:10:16.115Z,76.10
2018-10-02T04:12:45.688Z,76.30
2018-10-02T04:15:15.480Z,76.50
2018-10-02T04:17:45.208Z,77.00
2018-10-02T04:20:14.979Z,76.90
2018-10-02T04:22:44.697Z,77.10
2018-10-02T04:25:14.371Z,76.90
2018-10-02T04:27:44.298Z,77.20
2018-10-02T04:30:13.871Z,76.90
2018-10-02T04:32:43.590Z,76.80
2018-10-02T04:35:13.251Z,76.50
2018-10-02T04:37:42.882Z,76.30
2018-10-02T04:40:12.481Z,76.30
2018-10-02T04:42:42.318Z,76.40
2018-10-02T04:45:11.804Z,76.70
2018-10-02T04:47:41.626Z,76.00
2018-10-02T04:50:11.267Z,76.20
2018-10-02T04:52:40.952Z,76.30
2018-10-02T04:55:10.984Z,76.30
2018-10-02T04:57:40.479Z,76.60
2018-10-02T05:00:10.023Z,76.60
2018-10-02T05:02:39.694Z,76.30
2018-10-02T05:05:09.412Z,76.40
2018-10-02T05:07:41.121Z,76.80
2018-10-02T05:10:10.924Z,76.90
2018-10-02T05:12:40.509Z,76.70
2018-10-02T05:15:10.295Z,76.20
2018-10-02T05:17:39.932Z,76.50
2018-10-02T05:20:09.834Z,76.50
2018-10-02T05:22:39.444Z,76.80
2018-10-02T05:25:09.011Z,76.70
2018-10-02T05:27:38.605Z,76.80
2018-10-02T05:30:08.449Z,76.90
2018-10-02T05:32:39.015Z,77.10
2018-10-02T05:35:08.777Z,77.40
2018-10-02T05:37:38.483Z,77.50
2018-10-02T05:40:08.259Z,77.20
2018-10-02T05:42:39.954Z,78.50
2018-10-02T05:45:09.779Z,78.00
2018-10-02T05:47:39.327Z,78.30
2018-10-02T05:50:08.939Z,78.30
2018-10-02T05:52:38.367Z,78.30
2018-10-02T05:55:07.915Z,78.30
2018-10-02T05:57:38.691Z,78.20
2018-10-02T06:00:08.848Z,78.20
2018-10-02T06:02:38.511Z,78.30
2018-10-02T06:05:10.224Z,78.10
2018-10-02T06:07:39.859Z,77.70
2018-10-02T06:10:10.378Z,77.30
2018-10-02T06:12:40.170Z,77.40
2018-10-02T06:15:09.875Z,77.30
2018-10-02T06:17:39.677Z,77.50
2018-10-02T06:20:09.377Z,77.10
2018-10-02T06:22:39.071Z,77.80
2018-10-02T06:25:08.663Z,78.30
2018-10-02T06:27:38.278Z,78.00
2018-10-02T06:30:08.197Z,78.20
2018-10-02T06:32:37.959Z,78.20
2018-10-02T06:35:07.776Z,78.20
2018-10-02T06:37:37.420Z,78.40
2018-10-02T06:40:07.427Z,78.30
2018-10-02T06:42:37.231Z,78.30
2018-10-02T06:45:07.262Z,78.50
2018-10-02T06:47:36.747Z,78.90
2018-10-02T06:50:06.542Z,79.10
2018-10-02T06:52:36.579Z,78.80
2018-10-02T06:55:06.421Z,79.10
2018-10-02T06:57:36.074Z,78.90
2018-10-02T07:00:05.786Z,78.80
2018-10-02T07:02:35.413Z,78.50
2018-10-02T07:05:05.402Z,78.90
2018-10-02T07:07:35.054Z,79.00
2018-10-02T07:10:04.726Z,78.80
2018-10-02T07:12:34.494Z,78.80
2018-10-02T07:15:04.193Z,79.10
2018-10-02T07:17:34.001Z,79.10
2018-10-02T07:20:03.647Z,78.90
2018-10-02T07:22:33.257Z,78.80
2018-10-02T07:25:02.938Z,78.20
2018-10-02T07:27:32.736Z,78.00
2018-10-02T07:30:02.195Z,78.00
2018-10-02T07:32:31.915Z,77.50
2018-10-02T07:35:01.487Z,76.80
2018-10-02T07:37:31.166Z,77.10
2018-10-02T07:40:00.727Z,77.00
2018-10-02T07:42:30.461Z,76.00
2018-10-02T07:45:00.150Z,76.00
2018-10-02T07:47:29.944Z,76.00
2018-10-02T07:49:59.584Z,75.90
2018-10-02T07:52:29.100Z,75.00
2018-10-02T07:54:58.851Z,75.20
2018-10-02T07:57:28.403Z,75.30
2018-10-02T07:59:57.891Z,75.20
2018-10-02T08:02:27.516Z,75.10
2018-10-02T08:04:57.142Z,74.90
2018-10-02T08:07:26.898Z,75.50
2018-10-02T08:09:56.565Z,75.20
2018-10-02T08:12:26.192Z,75.40
2018-10-02T08:14:55.866Z,75.20
2018-10-02T08:17:25.429Z,74.40
2018-10-02T08:19:55.077Z,74.50
2018-10-02T08:22:24.818Z,74.50
2018-10-02T08:24:54.479Z,73.90
2018-10-02T08:27:24.843Z,74.00
2018-10-02T08:29:54.588Z,73.80
2018-10-02T08:32:24.274Z,73.40
2018-10-02T08:34:53.933Z,73.60
2018-10-02T08:37:23.649Z,73.90
2018-10-02T08:39:53.159Z,74.10
2018-10-02T08:42:22.827Z,74.40
2018-10-02T08:44:52.490Z,73.80
2018-10-02T08:47:22.207Z,72.60
2018-10-02T08:49:51.819Z,71.60
2018-10-02T08:52:21.538Z,72.50
2018-10-02T08:54:50.997Z,72.30
2018-10-02T08:57:20.723Z,72.00
2018-10-02T08:59:50.465Z,70.90
2018-10-02T09:02:20.288Z,70.40
2018-10-02T09:04:50.135Z,70.30
2018-10-02T09:07:20.686Z,70.80
2018-10-02T09:09:50.488Z,70.20
2018-10-02T09:12:20.137Z,69.80
2018-10-02T09:14:50.894Z,69.20
2018-10-02T09:17:20.629Z,68.90
2018-10-02T09:19:50.346Z,67.80
2018-10-02T09:22:20.769Z,67.90
2018-10-02T09:24:50.748Z,67.20
2018-10-02T09:27:20.310Z,67.50
2018-10-02T09:29:56.599Z,67.70
2018-10-02T09:32:31.436Z,67.00
2018-10-02T09:35:06.391Z,67.20
2018-10-02T09:37:41.406Z,67.50
2018-10-02T09:40:16.527Z,67.40
2018-10-02T09:42:51.433Z,68.10
2018-10-02T09:45:21.229Z,68.40
2018-10-02T09:47:51.118Z,69.00
2018-10-02T09:50:20.722Z,69.50
2018-10-02T09:52:50.491Z,68.90
2018-10-02T09:55:20.297Z,68.20
2018-10-02T09:57:50.670Z,68.10
2018-10-02T10:00:26.408Z,68.00
2018-10-02T10:02:56.604Z,68.70
2018-10-02T10:05:26.384Z,68.10
2018-10-02T10:07:56.327Z,67.30
2018-10-02T10:10:25.834Z,65.70
2018-10-02T10:12:55.652Z,66.80
2018-10-02T10:15:26.251Z,66.50
2018-10-02T10:17:55.884Z,67.00
2018-10-02T10:20:25.583Z,66.20
2018-10-02T10:22:57.209Z,64.90
2018-10-02T10:25:26.954Z,65.90
2018-10-02T10:27:56.577Z,64.10
2018-10-02T10:30:26.929Z,62.70
2018-10-02T10:32:56.889Z,63.10
2018-10-02T10:35:26.464Z,63.60
2018-10-02T10:37:56.205Z,63.50
2018-10-02T10:40:25.909Z,62.70
2018-10-02T10:42:56.241Z,62.80
2018-10-02T10:45:26.416Z,62.70
2018-10-02T10:47:56.341Z,63.60
2018-10-02T10:50:25.835Z,63.30
2018-10-02T10:52:56.526Z,63.30
2018-10-02T10:55:32.312Z,64.00
2018-10-02T10:58:02.783Z,64.00
2018-10-02T11:00:32.483Z,63.40
2018-10-02T11:03:02.152Z,62.40
2018-10-02T11:05:31.640Z,60.90
2018-10-02T11:08:01.707Z,61.90
2018-10-02T11:10:31.452Z,60.10
2018-10-02T11:13:01.222Z,60.80
2018-10-02T11:15:32.924Z,60.30
2018-10-02T11:18:02.573Z,60.50
2018-10-02T11:20:33.718Z,60.00
2018-10-02T11:23:04.054Z,60.00
2018-10-02T11:25:33.831Z,61.00
2018-10-02T11:28:03.463Z,60.30
2018-10-02T11:30:33.650Z,61.20
2018-10-02T11:33:03.414Z,60.70
2018-10-02T11:35:33.253Z,64.90
2018-10-02T11:38:02.830Z,60.60
2018-10-02T11:40:32.499Z,61.10
2018-10-02T11:43:02.176Z,61.30
2018-10-02T11:45:31.944Z,61.10
2018-10-02T11:48:01.400Z,61.30
2018-10-02T11:50:31.165Z,62.00
2018-10-02T11:53:00.740Z,59.60
2018-10-02T11:55:30.563Z,59.20
2018-10-02T11:58:00.160Z,58.40
2018-10-02T12:00:29.793Z,58.60
2018-10-02T12:02:59.701Z,57.80
2018-10-02T12:05:29.373Z,58.30
2018-10-02T12:07:59.462Z,59.30
2018-10-02T12:10:28.935Z,59.70
2018-10-02T12:12:58.972Z,60.20
2018-10-02T12:15:28.786Z,59.10
2018-10-02T12:17:58.965Z,59.20
2018-10-02T12:20:29.038Z,59.40
2018-10-02T12:22:58.653Z,60.80
2018-10-02T12:25:28.479Z,60.80
2018-10-02T12:27:58.690Z,60.20
2018-10-02T12:30:28.718Z,60.70
2018-10-02T12:32:58.525Z,61.70
2018-10-02T12:35:28.303Z,61.80
2018-10-02T12:37:58.266Z,61.70
2018-10-02T12:40:28.672Z,61.90
2018-10-02T12:42:58.545Z,63.00
2018-10-02T12:45:28.442Z,62.60
2018-10-02T12:47:58.554Z,62.20
2018-10-02T12:50:28.388Z,62.70
2018-10-02T12:52:58.188Z,61.90
2018-10-02T12:55:27.850Z,62.20
2018-10-02T12:57:57.813Z,62.40
2018-10-02T13:00:27.927Z,61.60
2018-10-02T13:02:58.013Z,63.00
2018-10-02T13:05:28.239Z,63.20
2018-10-02T13:07:58.144Z,62.50
2018-10-02T13:10:28.694Z,61.90
2018-10-02T13:12:58.669Z,62.30
2018-10-02T13:15:28.530Z,62.70
2018-10-02T13:17:58.325Z,61.30
2018-10-02T13:20:28.003Z,60.70
2018-10-02T13:22:57.675Z,61.10
2018-10-02T13:25:27.432Z,60.60
2018-10-02T13:27:57.155Z,60.50
2018-10-02T13:30:26.694Z,61.10
2018-10-02T13:32:56.449Z,60.70
2018-10-02T13:35:26.212Z,61.30
2018-10-02T13:37:55.845Z,61.10
2018-10-02T13:40:25.525Z,60.20
2018-10-02T13:42:55.323Z,60.00
2018-10-02T13:45:25.004Z,60.00
2018-10-02T13:47:54.635Z,60.70
2018-10-02T13:50:24.109Z,59.90
2018-10-02T13:52:53.723Z,60.30
2018-10-02T13:55:23.303Z,61.10
2018-10-02T13:57:53.188Z,60.60
2018-10-02T14:00:22.927Z,60.20
2018-10-02T14:02:52.651Z,59.80
2018-10-02T14:05:22.375Z,59.80
2018-10-02T14:07:52.068Z,59.70
2018-10-02T14:10:21.886Z,59.80
2018-10-02T14:12:52.702Z,60.70
2018-10-02T14:15:22.528Z,61.60
2018-10-02T14:17:51.980Z,61.90
2018-10-02T14:20:21.667Z,61.70
2018-10-02T14:22:51.301Z,62.40
2018-10-02T14:25:21.039Z,62.10
2018-10-02T14:27:50.803Z,62.50
2018-10-02T14:30:20.410Z,62.80
2018-10-02T14:32:50.146Z,62.90
2018-10-02T14:35:19.811Z,62.40
2018-10-02T14:37:49.374Z,61.90
2018-10-02T14:40:18.958Z,62.40
2018-10-02T14:42:48.483Z,61.60
2018-10-02T14:45:18.306Z,62.00
2018-10-02T14:47:48.927Z,62.20
2018-10-02T14:50:18.715Z,62.80
2018-10-02T14:52:48.551Z,63.10
2018-10-02T14:55:18.131Z,62.80
2018-10-02T14:57:47.854Z,63.50
2018-10-02T15:00:17.798Z,62.90
2018-10-02T15:02:47.562Z,63.10
2018-10-02T15:05:17.410Z,63.10
2018-10-02T15:07:47.097Z,63.70
2018-10-02T15:10:16.761Z,63.20
2018-10-02T15:12:46.478Z,62.80
2018-10-02T15:15:16.112Z,62.80
2018-10-02T15:17:45.699Z,62.50
2018-10-02T15:20:15.460Z,61.90
2018-10-02T15:22:45.092Z,62.20
2018-10-02T15:25:14.729Z,62.70
2018-10-02T15:27:44.499Z,63.40
2018-10-02T15:30:14.342Z,62.90
2018-10-02T15:32:43.964Z,63.00
2018-10-02T15:35:13.579Z,62.80
2018-10-02T15:37:43.029Z,63.00
2018-10-02T15:40:12.670Z,63.00
2018-10-02T15:42:42.446Z,63.40
2018-10-02T15:45:12.062Z,63.30
2018-10-02T15:47:41.586Z,63.70
2018-10-02T15:50:11.061Z,63.70
2018-10-02T15:52:40.578Z,63.50
2018-10-02T15:55:10.358Z,63.90
2018-10-02T15:57:40.211Z,63.80
2018-10-02T16:00:09.996Z,63.90
2018-10-02T16:02:39.616Z,64.20
2018-10-02T16:05:09.354Z,64.50
2018-10-02T16:07:39.147Z,64.40
2018-10-02T16:10:08.842Z,64.00
2018-10-02T16:12:38.563Z,64.10
2018-10-02T16:15:08.302Z,64.00
2018-10-02T16:17:37.775Z,64.10
2018-10-02T16:20:07.624Z,64.20
2018-10-02T16:22:37.681Z,64.40
2018-10-02T16:25:07.534Z,64.40
2018-10-02T16:27:37.244Z,64.20
2018-10-02T16:30:07.064Z,64.40
2018-10-02T16:32:36.755Z,64.50
2018-10-02T16:35:06.325Z,64.90
2018-10-02T16:37:36.223Z,64.20
2018-10-02T16:40:05.903Z,64.00
2018-10-02T16:42:35.684Z,64.10
2018-10-02T16:45:05.695Z,63.90
2018-10-02T16:47:35.867Z,64.30
2018-10-02T16:50:05.765Z,64.60
2018-10-02T16:52:40.749Z,65.70
2018-10-02T16:55:10.675Z,65.60
2018-10-02T16:57:40.485Z,65.80
2018-10-02T17:00:10.941Z,65.90
2018-10-02T17:02:40.787Z,66.00
2018-10-02T17:05:10.478Z,66.50
2018-10-02T17:07:40.147Z,66.60
2018-10-02T17:10:09.816Z,66.70
2018-10-02T17:12:39.641Z,67.30
2018-10-02T17:15:09.503Z,67.60
2018-10-02T17:17:39.198Z,68.10
2018-10-02T17:20:09.087Z,68.60
2018-10-02T17:22:38.858Z,68.90
2018-10-02T17:25:08.449Z,69.50
2018-10-02T17:27:38.210Z,69.30
2018-10-02T17:30:07.882Z,69.60
2018-10-02T17:32:37.614Z,70.00
2018-10-02T17:35:07.350Z,70.20
2018-10-02T17:37:36.982Z,70.20
2018-10-02T17:40:06.719Z,70.50
2018-10-02T17:42:36.543Z,70.30
2018-10-02T17:45:06.099Z,70.00
2018-10-02T17:47:35.670Z,69.60
2018-10-02T17:50:05.597Z,69.30
2018-10-02T17:52:35.340Z,69.10
2018-10-02T17:55:05.053Z,69.60
2018-10-02T17:57:34.686Z,69.80
2018-10-02T18:00:04.651Z,69.60
2018-10-02T18:02:34.198Z,69.30
2018-10-02T18:05:03.985Z,69.40
2018-10-02T18:07:33.743Z,69.20
2018-10-02T18:10:03.243Z,69.10
2018-10-02T18:12:32.912Z,69.00
2018-10-02T18:15:02.677Z,69.20
2018-10-02T18:17:32.399Z,69.30
2018-10-02T18:20:02.244Z,69.00
2018-10-02T18:22:32.103Z,68.70
2018-10-02T18:25:01.667Z,68.80
2018-10-02T18:27:31.271Z,68.70
2018-10-02T18:30:01.094Z,68.60
2018-10-02T18:32:30.575Z,68.70
2018-10-02T18:35:00.236Z,68.10
2018-10-02T18:37:29.928Z,68.20
2018-10-02T18:39:59.808Z,67.90
2018-10-02T18:42:29.523Z,67.80
2018-10-02T18:44:59.438Z,68.10
2018-10-02T18:47:29.151Z,68.20
2018-10-02T18:49:58.951Z,68.20
2018-10-02T18:52:28.767Z,68.20
2018-10-02T18:54:58.482Z,68.10
2018-10-02T18:57:28.110Z,68.30
2018-10-02T18:59:57.825Z,68.20
2018-10-02T19:02:27.525Z,68.20
2018-10-02T19:04:57.203Z,68.40
2018-10-02T19:07:26.806Z,68.10
2018-10-02T19:09:56.578Z,68.20
2018-10-02T19:12:26.221Z,67.90
2018-10-02T19:14:55.949Z,68.40
2018-10-02T19:17:25.538Z,68.30
2018-10-02T19:20:00.735Z,67.90
2018-10-02T19:22:30.619Z,67.80
2018-10-02T19:25:05.625Z,67.50
2018-10-02T19:27:36.249Z,67.40
2018-10-02T19:30:11.136Z,67.30
2018-10-02T19:32:40.759Z,67.30
2018-10-02T19:35:10.566Z,67.80
2018-10-02T19:37:45.548Z,67.60
2018-10-02T19:40:15.228Z,68.60
2018-10-02T19:42:44.746Z,68.20
2018-10-02T19:45:19.626Z,68.20
2018-10-02T19:47:49.215Z,68.20
2018-10-02T19:50:18.864Z,68.20
2018-10-02T19:52:48.536Z,68.20
2018-10-02T19:55:18.179Z,68.70
2018-10-02T19:57:47.667Z,68.60
2018-10-02T20:00:17.155Z,69.20
2018-10-02T20:02:46.883Z,68.90
2018-10-02T20:05:16.508Z,68.90
2018-10-02T20:07:46.169Z,69.00
2018-10-02T20:10:15.796Z,69.20
2018-10-02T20:12:45.334Z,69.20
2018-10-02T20:15:14.803Z,68.60
2018-10-02T20:17:44.299Z,69.00
2018-10-02T20:20:13.951Z,69.00
2018-10-02T20:22:43.638Z,69.50
2018-10-02T20:25:13.249Z,69.50
2018-10-02T20:27:42.964Z,69.60
2018-10-02T20:30:12.697Z,69.80
2018-10-02T20:32:42.616Z,69.80
2018-10-02T20:35:12.111Z,69.80
2018-10-02T20:37:41.829Z,69.60
2018-10-02T20:40:11.292Z,69.40
2018-10-02T20:42:40.891Z,69.50
2018-10-02T20:45:10.627Z,69.00
2018-10-02T20:47:40.072Z,68.60
2018-10-02T20:50:09.802Z,68.20
2018-10-02T20:52:39.492Z,68.40
2018-10-02T20:55:09.070Z,68.30
2018-10-02T20:57:38.695Z,68.70
2018-10-02T21:00:08.332Z,68.70
2018-10-02T21:02:38.109Z,68.30
2018-10-02T21:05:07.999Z,68.70
2018-10-02T21:07:37.746Z,69.00
2018-10-02T21:10:07.515Z,68.90
2018-10-02T21:12:37.183Z,69.20
2018-10-02T21:15:06.806Z,69.20
2018-10-02T21:17:36.488Z,69.20
2018-10-02T21:20:06.569Z,69.60
2018-10-02T21:22:36.244Z,69.80
2018-10-02T21:25:06.039Z,69.60
2018-10-02T21:27:35.622Z,69.60
2018-10-02T21:30:05.543Z,69.60
2018-10-02T21:32:35.410Z,70.00
2018-10-02T21:35:05.298Z,70.00
2018-10-02T21:37:35.062Z,70.00
2018-10-02T21:40:04.936Z,69.80
2018-10-02T21:42:34.631Z,70.00
2018-10-02T21:45:04.382Z,70.30
2018-10-02T21:47:33.962Z,70.50
2018-10-02T21:50:03.818Z,70.60
2018-10-02T21:52:33.551Z,70.70
2018-10-02T21:55:03.254Z,70.70
2018-10-02T21:57:33.183Z,70.90
2018-10-02T22:00:02.631Z,71.00
2018-10-02T22:02:32.395Z,70.90
2018-10-02T22:05:01.982Z,71.20
2018-10-02T22:07:31.438Z,71.50
2018-10-02T22:10:01.148Z,71.60
2018-10-02T22:12:31.191Z,71.70
2018-10-02T22:15:00.928Z,71.70
2018-10-02T22:17:30.550Z,72.00
2018-10-02T22:20:00.366Z,72.20
2018-10-02T22:22:29.982Z,72.20
2018-10-02T22:24:59.683Z,72.40
2018-10-02T22:27:29.363Z,72.40
2018-10-02T22:29:58.916Z,72.50
2018-10-02T22:32:28.747Z,72.70
2018-10-02T22:34:58.421Z,72.70
2018-10-02T22:37:28.067Z,72.90
2018-10-02T22:39:57.856Z,73.20
2018-10-02T22:42:27.624Z,73.40
2018-10-02T22:44:57.330Z,73.20
2018-10-02T22:47:26.773Z,73.10
2018-10-02T22:49:56.605Z,73.20
2018-10-02T22:52:26.355Z,73.40
2018-10-02T22:54:56.010Z,73.20
2018-10-02T22:57:25.830Z,73.60
2018-10-02T22:59:55.527Z,73.70
2018-10-02T23:02:25.315Z,73.40
2018-10-02T23:04:54.959Z,73.70
2018-10-02T23:07:24.621Z,74.80
2018-10-02T23:09:54.271Z,73.80
2018-10-02T23:12:23.950Z,74.10
2018-10-02T23:14:53.603Z,74.20
2018-10-02T23:17:23.105Z,74.30
2018-10-02T23:19:52.787Z,74.40
2018-10-02T23:22:22.439Z,74.30
2018-10-02T23:24:51.988Z,74.40
2018-10-02T23:27:21.418Z,74.60
2018-10-02T23:29:51.167Z,74.30
2018-10-02T23:32:20.925Z,74.60
2018-10-02T23:34:50.557Z,75.50
2018-10-02T23:37:20.343Z,74.80
2018-10-02T23:39:49.972Z,74.90
2018-10-02T23:42:19.608Z,74.80
2018-10-02T23:44:49.194Z,74.80
2018-10-02T23:47:18.912Z,74.90
2018-10-02T23:49:48.635Z,74.20
2018-10-02T23:52:18.136Z,74.20
2018-10-02T23:54:47.784Z,74.40
2018-10-02T23:57:17.451Z,74.50
2018-10-02T23:59:47.137Z,74.30
